sensor_id;sensor_type;location;lat;lon;timestamp;pressure;altitude;pressure_sealevel;temperature;humidity
14242;BME280;7205;50.864;12.766;2023-03-01T00:00:16;98842.47;;;-0.72;70.75
14242;BME280;7205;50.864;12.766;2023-03-01T00:02:43;98840.84;;;-0.75;70.78
14242;BME280;7205;50.864;12.766;2023-03-01T00:05:10;98842.75;;;-0.78;70.59
14242;BME280;7205;50.864;12.766;2023-03-01T00:07:37;98841.97;;;-0.80;70.88
14242;BME280;7205;50.864;12.766;2023-03-01T00:10:05;98832.69;;;-0.84;70.92
14242;BME280;7205;50.864;12.766;2023-03-01T00:12:33;98833.56;;;-0.85;70.94
14242;BME280;7205;50.864;12.766;2023-03-01T00:15:01;98836.25;;;-0.87;71.05
14242;BME280;7205;50.864;12.766;2023-03-01T00:17:30;98827.88;;;-0.92;70.73
14242;BME280;7205;50.864;12.766;2023-03-01T00:19:57;98835.63;;;-0.92;71.12
14242;BME280;7205;50.864;12.766;2023-03-01T00:22:23;98834.91;;;-0.94;70.86
14242;BME280;7205;50.864;12.766;2023-03-01T00:24:50;98831.47;;;-0.94;70.82
14242;BME280;7205;50.864;12.766;2023-03-01T00:27:17;98838.47;;;-0.96;70.73
14242;BME280;7205;50.864;12.766;2023-03-01T00:29:45;98830.84;;;-0.99;70.83
14242;BME280;7205;50.864;12.766;2023-03-01T00:32:12;98833.44;;;-0.99;70.87
14242;BME280;7205;50.864;12.766;2023-03-01T00:34:39;98830.06;;;-1.01;70.99
14242;BME280;7205;50.864;12.766;2023-03-01T00:37:06;98828.50;;;-1.04;70.92
14242;BME280;7205;50.864;12.766;2023-03-01T00:39:33;98824.28;;;-1.06;71.03
14242;BME280;7205;50.864;12.766;2023-03-01T00:42:00;98825.28;;;-1.09;70.92
14242;BME280;7205;50.864;12.766;2023-03-01T00:44:27;98826.16;;;-1.10;70.84
14242;BME280;7205;50.864;12.766;2023-03-01T00:46:55;98824.59;;;-1.12;71.05
14242;BME280;7205;50.864;12.766;2023-03-01T00:49:22;98825.41;;;-1.12;70.72
14242;BME280;7205;50.864;12.766;2023-03-01T00:51:53;98820.38;;;-1.15;71.00
14242;BME280;7205;50.864;12.766;2023-03-01T00:54:22;98817.00;;;-1.17;70.85
14242;BME280;7205;50.864;12.766;2023-03-01T00:56:49;98815.34;;;-1.18;71.20
14242;BME280;7205;50.864;12.766;2023-03-01T00:59:16;98823.19;;;-1.19;70.86
14242;BME280;7205;50.864;12.766;2023-03-01T01:01:43;98812.06;;;-1.21;71.25
14242;BME280;7205;50.864;12.766;2023-03-01T01:04:13;98808.69;;;-1.23;71.15
14242;BME280;7205;50.864;12.766;2023-03-01T01:06:41;98815.66;;;-1.24;71.01
14242;BME280;7205;50.864;12.766;2023-03-01T01:09:10;98812.44;;;-1.29;70.99
14242;BME280;7205;50.864;12.766;2023-03-01T01:11:42;98807.38;;;-1.32;71.07
14242;BME280;7205;50.864;12.766;2023-03-01T01:14:10;98798.88;;;-1.34;71.19
14242;BME280;7205;50.864;12.766;2023-03-01T01:16:36;98798.09;;;-1.36;71.01
14242;BME280;7205;50.864;12.766;2023-03-01T01:19:03;98798.19;;;-1.38;71.05
14242;BME280;7205;50.864;12.766;2023-03-01T01:21:32;98793.97;;;-1.40;71.36
14242;BME280;7205;50.864;12.766;2023-03-01T01:24:03;98778.50;;;-1.42;71.29
14242;BME280;7205;50.864;12.766;2023-03-01T01:26:32;98770.03;;;-1.45;71.02
14242;BME280;7205;50.864;12.766;2023-03-01T01:29:02;98777.75;;;-1.44;70.95
14242;BME280;7205;50.864;12.766;2023-03-01T01:31:36;98770.19;;;-1.48;71.15
14242;BME280;7205;50.864;12.766;2023-03-01T01:34:07;98765.03;;;-1.48;71.04
14242;BME280;7205;50.864;12.766;2023-03-01T01:36:41;98762.59;;;-1.51;71.42
14242;BME280;7205;50.864;12.766;2023-03-01T01:39:09;98765.25;;;-1.53;71.27
14242;BME280;7205;50.864;12.766;2023-03-01T01:41:39;98760.16;;;-1.54;71.14
14242;BME280;7205;50.864;12.766;2023-03-01T01:44:13;98761.03;;;-1.55;70.98
14242;BME280;7205;50.864;12.766;2023-03-01T01:46:42;98759.38;;;-1.56;71.16
14242;BME280;7205;50.864;12.766;2023-03-01T01:49:23;98758.59;;;-1.58;71.07
14242;BME280;7205;50.864;12.766;2023-03-01T01:51:57;98758.84;;;-1.63;71.34
14242;BME280;7205;50.864;12.766;2023-03-01T01:54:30;98751.88;;;-1.62;71.01
14242;BME280;7205;50.864;12.766;2023-03-01T01:57:19;98752.88;;;-1.65;71.02
14242;BME280;7205;50.864;12.766;2023-03-01T01:59:50;98746.94;;;-1.67;71.00
14242;BME280;7205;50.864;12.766;2023-03-01T02:02:18;98740.22;;;-1.71;71.03
14242;BME280;7205;50.864;12.766;2023-03-01T02:04:46;98748.81;;;-1.70;70.92
14242;BME280;7205;50.864;12.766;2023-03-01T02:07:18;98738.56;;;-1.72;71.19
14242;BME280;7205;50.864;12.766;2023-03-01T02:09:48;98738.56;;;-1.72;71.28
14242;BME280;7205;50.864;12.766;2023-03-01T02:12:19;98742.06;;;-1.73;71.17
14242;BME280;7205;50.864;12.766;2023-03-01T02:14:47;98737.06;;;-1.77;71.06
14242;BME280;7205;50.864;12.766;2023-03-01T02:17:15;98749.81;;;-1.73;71.27
14242;BME280;7205;50.864;12.766;2023-03-01T02:19:58;98742.94;;;-1.74;71.29
14242;BME280;7205;50.864;12.766;2023-03-01T02:22:37;98737.94;;;-1.77;71.32
14242;BME280;7205;50.864;12.766;2023-03-01T02:25:27;98735.50;;;-1.80;71.08
14242;BME280;7205;50.864;12.766;2023-03-01T02:27:59;98738.97;;;-1.81;71.44
14242;BME280;7205;50.864;12.766;2023-03-01T02:30:34;98746.81;;;-1.82;71.50
14242;BME280;7205;50.864;12.766;2023-03-01T02:33:03;98747.66;;;-1.82;71.60
14242;BME280;7205;50.864;12.766;2023-03-01T02:35:32;98743.19;;;-1.78;71.80
14242;BME280;7205;50.864;12.766;2023-03-01T02:38:01;98740.50;;;-1.77;71.74
14242;BME280;7205;50.864;12.766;2023-03-01T02:40:30;98745.69;;;-1.77;71.55
14242;BME280;7205;50.864;12.766;2023-03-01T02:42:59;98750.72;;;-1.74;71.36
14242;BME280;7205;50.864;12.766;2023-03-01T02:45:27;98748.97;;;-1.73;71.61
14242;BME280;7205;50.864;12.766;2023-03-01T02:47:55;98748.13;;;-1.74;71.52
14242;BME280;7205;50.864;12.766;2023-03-01T02:50:42;98748.97;;;-1.73;71.67
14242;BME280;7205;50.864;12.766;2023-03-01T02:53:15;98753.44;;;-1.77;71.70
14242;BME280;7205;50.864;12.766;2023-03-01T02:55:43;98751.72;;;-1.76;71.48
14242;BME280;7205;50.864;12.766;2023-03-01T02:58:11;98738.94;;;-1.79;71.87
14242;BME280;7205;50.864;12.766;2023-03-01T03:00:40;98746.69;;;-1.79;71.85
14242;BME280;7205;50.864;12.766;2023-03-01T03:03:14;98743.41;;;-1.83;71.99
14242;BME280;7205;50.864;12.766;2023-03-01T03:05:41;98735.63;;;-1.83;71.84
14242;BME280;7205;50.864;12.766;2023-03-01T03:08:08;98733.94;;;-1.84;71.70
14242;BME280;7205;50.864;12.766;2023-03-01T03:10:38;98734.00;;;-1.85;72.14
14242;BME280;7205;50.864;12.766;2023-03-01T03:13:08;98719.50;;;-1.88;71.74
14242;BME280;7205;50.864;12.766;2023-03-01T03:15:36;98713.47;;;-1.88;71.95
14242;BME280;7205;50.864;12.766;2023-03-01T03:18:07;98714.31;;;-1.88;72.06
14242;BME280;7205;50.864;12.766;2023-03-01T03:20:36;98707.59;;;-1.92;72.18
14242;BME280;7205;50.864;12.766;2023-03-01T03:23:03;98712.78;;;-1.92;71.91
14242;BME280;7205;50.864;12.766;2023-03-01T03:25:30;98715.34;;;-1.92;71.99
14242;BME280;7205;50.864;12.766;2023-03-01T03:27:57;98720.69;;;-1.95;72.03
14242;BME280;7205;50.864;12.766;2023-03-01T03:30:26;98719.84;;;-1.95;72.22
14242;BME280;7205;50.864;12.766;2023-03-01T03:32:54;98722.56;;;-1.98;71.72
14242;BME280;7205;50.864;12.766;2023-03-01T03:35:24;98711.38;;;-1.99;72.10
14242;BME280;7205;50.864;12.766;2023-03-01T03:37:53;98709.78;;;-2.01;72.16
14242;BME280;7205;50.864;12.766;2023-03-01T03:40:30;98717.53;;;-2.01;72.18
14242;BME280;7205;50.864;12.766;2023-03-01T03:42:57;98703.75;;;-2.02;72.17
14242;BME280;7205;50.864;12.766;2023-03-01T03:45:24;98702.03;;;-2.01;71.97
14242;BME280;7205;50.864;12.766;2023-03-01T03:47:51;98696.16;;;-2.05;72.43
14242;BME280;7205;50.864;12.766;2023-03-01T03:50:18;98698.66;;;-2.03;72.05
14242;BME280;7205;50.864;12.766;2023-03-01T03:52:45;98695.16;;;-2.02;72.13
14242;BME280;7205;50.864;12.766;2023-03-01T03:55:13;98693.41;;;-2.02;72.21
14242;BME280;7205;50.864;12.766;2023-03-01T03:57:45;98696.94;;;-2.03;72.15
14242;BME280;7205;50.864;12.766;2023-03-01T04:00:18;98689.28;;;-2.06;72.32
14242;BME280;7205;50.864;12.766;2023-03-01T04:02:46;98690.06;;;-2.04;72.50
14242;BME280;7205;50.864;12.766;2023-03-01T04:05:15;98708.16;;;-2.04;72.30
14242;BME280;7205;50.864;12.766;2023-03-01T04:07:43;98695.38;;;-2.07;72.24
14242;BME280;7205;50.864;12.766;2023-03-01T04:10:11;98696.31;;;-2.08;72.34
14242;BME280;7205;50.864;12.766;2023-03-01T04:12:40;98689.44;;;-2.09;72.65
14242;BME280;7205;50.864;12.766;2023-03-01T04:15:09;98695.44;;;-2.08;72.52
14242;BME280;7205;50.864;12.766;2023-03-01T04:17:39;98696.41;;;-2.11;72.33
14242;BME280;7205;50.864;12.766;2023-03-01T04:20:08;98693.16;;;-2.14;72.32
14242;BME280;7205;50.864;12.766;2023-03-01T04:22:36;98692.38;;;-2.16;72.19
14242;BME280;7205;50.864;12.766;2023-03-01T04:25:03;98693.28;;;-2.17;72.13
14242;BME280;7205;50.864;12.766;2023-03-01T04:27:32;98687.38;;;-2.19;72.12
14242;BME280;7205;50.864;12.766;2023-03-01T04:30:01;98689.03;;;-2.18;72.10
14242;BME280;7205;50.864;12.766;2023-03-01T04:32:29;98688.19;;;-2.19;72.29
14242;BME280;7205;50.864;12.766;2023-03-01T04:34:56;98690.00;;;-2.21;72.08
14242;BME280;7205;50.864;12.766;2023-03-01T04:37:26;98677.22;;;-2.24;72.08
14242;BME280;7205;50.864;12.766;2023-03-01T04:39:53;98686.66;;;-2.23;72.01
14242;BME280;7205;50.864;12.766;2023-03-01T04:42:19;98677.22;;;-2.24;72.55
14242;BME280;7205;50.864;12.766;2023-03-01T04:44:46;98678.06;;;-2.23;72.72
14242;BME280;7205;50.864;12.766;2023-03-01T04:47:18;98688.47;;;-2.25;72.55
14242;BME280;7205;50.864;12.766;2023-03-01T04:49:45;98684.16;;;-2.24;72.51
14242;BME280;7205;50.864;12.766;2023-03-01T04:52:12;98686.75;;;-2.24;72.50
14242;BME280;7205;50.864;12.766;2023-03-01T04:54:38;98689.38;;;-2.26;72.77
14242;BME280;7205;50.864;12.766;2023-03-01T04:57:06;98686.84;;;-2.27;72.86
14242;BME280;7205;50.864;12.766;2023-03-01T04:59:33;98684.41;;;-2.30;72.38
14242;BME280;7205;50.864;12.766;2023-03-01T05:02:01;98681.13;;;-2.34;72.40
14242;BME280;7205;50.864;12.766;2023-03-01T05:04:30;98677.91;;;-2.39;72.41
14242;BME280;7205;50.864;12.766;2023-03-01T05:06:57;98671.97;;;-2.41;72.32
14242;BME280;7205;50.864;12.766;2023-03-01T05:09:24;98679.81;;;-2.42;72.30
14242;BME280;7205;50.864;12.766;2023-03-01T05:11:51;98671.34;;;-2.27;73.16
14242;BME280;7205;50.864;12.766;2023-03-01T05:14:17;98682.75;;;-2.13;72.57
14242;BME280;7205;50.864;12.766;2023-03-01T05:16:44;98682.13;;;-2.18;71.75
14242;BME280;7205;50.864;12.766;2023-03-01T05:19:11;98685.03;;;-2.25;71.78
14242;BME280;7205;50.864;12.766;2023-03-01T05:21:42;98685.28;;;-2.30;71.88
14242;BME280;7205;50.864;12.766;2023-03-01T05:24:22;98683.94;;;-2.38;72.01
14242;BME280;7205;50.864;12.766;2023-03-01T05:26:49;98682.31;;;-2.41;72.28
14242;BME280;7205;50.864;12.766;2023-03-01T05:29:17;98684.16;;;-2.43;72.32
14242;BME280;7205;50.864;12.766;2023-03-01T05:31:51;98678.22;;;-2.45;72.22
14242;BME280;7205;50.864;12.766;2023-03-01T05:34:18;98675.56;;;-2.43;72.44
14242;BME280;7205;50.864;12.766;2023-03-01T05:36:49;98679.06;;;-2.44;72.18
14242;BME280;7205;50.864;12.766;2023-03-01T05:39:19;98681.69;;;-2.46;72.64
14242;BME280;7205;50.864;12.766;2023-03-01T05:41:46;98674.84;;;-2.47;72.43
14242;BME280;7205;50.864;12.766;2023-03-01T05:44:13;98674.06;;;-2.49;72.41
14242;BME280;7205;50.864;12.766;2023-03-01T05:46:41;98668.09;;;-2.49;72.38
14242;BME280;7205;50.864;12.766;2023-03-01T05:49:08;98667.25;;;-2.50;72.29
14242;BME280;7205;50.864;12.766;2023-03-01T05:51:34;98670.72;;;-2.51;72.56
14242;BME280;7205;50.864;12.766;2023-03-01T05:54:03;98676.81;;;-2.52;72.47
14242;BME280;7205;50.864;12.766;2023-03-01T05:56:32;98675.88;;;-2.51;72.58
14242;BME280;7205;50.864;12.766;2023-03-01T05:58:59;98679.31;;;-2.50;72.61
14242;BME280;7205;50.864;12.766;2023-03-01T06:01:26;98676.81;;;-2.52;72.53
14242;BME280;7205;50.864;12.766;2023-03-01T06:03:53;98683.84;;;-2.56;72.46
14242;BME280;7205;50.864;12.766;2023-03-01T06:06:20;98677.84;;;-2.56;72.72
14242;BME280;7205;50.864;12.766;2023-03-01T06:08:47;98680.41;;;-2.56;72.82
14242;BME280;7205;50.864;12.766;2023-03-01T06:11:22;98677.97;;;-2.59;72.88
14242;BME280;7205;50.864;12.766;2023-03-01T06:13:49;98673.66;;;-2.59;72.83
14242;BME280;7205;50.864;12.766;2023-03-01T06:16:16;98674.28;;;-2.53;72.84
14242;BME280;7205;50.864;12.766;2023-03-01T06:18:43;98679.38;;;-2.52;72.81
14242;BME280;7205;50.864;12.766;2023-03-01T06:21:10;98680.16;;;-2.50;72.87
14242;BME280;7205;50.864;12.766;2023-03-01T06:23:37;98675.06;;;-2.51;72.81
14242;BME280;7205;50.864;12.766;2023-03-01T06:26:08;98674.06;;;-2.49;72.77
14242;BME280;7205;50.864;12.766;2023-03-01T06:28:36;98678.44;;;-2.49;72.94
14242;BME280;7205;50.864;12.766;2023-03-01T06:31:03;98675.63;;;-2.45;73.01
14242;BME280;7205;50.864;12.766;2023-03-01T06:33:34;98681.56;;;-2.43;73.16
14242;BME280;7205;50.864;12.766;2023-03-01T06:36:01;98675.41;;;-2.40;73.02
14242;BME280;7205;50.864;12.766;2023-03-01T06:38:28;98679.53;;;-2.36;73.22
14242;BME280;7205;50.864;12.766;2023-03-01T06:40:55;98678.47;;;-2.32;73.26
14242;BME280;7205;50.864;12.766;2023-03-01T06:43:22;98680.03;;;-2.28;73.12
14242;BME280;7205;50.864;12.766;2023-03-01T06:45:50;98678.97;;;-2.24;73.61
14242;BME280;7205;50.864;12.766;2023-03-01T06:48:17;98684.00;;;-2.21;73.57
14242;BME280;7205;50.864;12.766;2023-03-01T06:50:44;98682.94;;;-2.17;73.46
14242;BME280;7205;50.864;12.766;2023-03-01T06:53:10;98683.63;;;-2.14;73.33
14242;BME280;7205;50.864;12.766;2023-03-01T06:55:37;98679.16;;;-2.10;73.42
14242;BME280;7205;50.864;12.766;2023-03-01T06:58:04;98684.97;;;-2.05;73.46
14242;BME280;7205;50.864;12.766;2023-03-01T07:00:31;98675.53;;;-2.06;73.58
14242;BME280;7205;50.864;12.766;2023-03-01T07:03:01;98688.94;;;-1.98;73.68
14242;BME280;7205;50.864;12.766;2023-03-01T07:05:28;98686.97;;;-1.93;73.83
14242;BME280;7205;50.864;12.766;2023-03-01T07:07:55;98685.94;;;-1.89;73.95
14242;BME280;7205;50.864;12.766;2023-03-01T07:10:22;98691.75;;;-1.86;73.75
14242;BME280;7205;50.864;12.766;2023-03-01T07:12:49;98689.88;;;-1.82;73.60
14242;BME280;7205;50.864;12.766;2023-03-01T07:15:16;98687.00;;;-1.76;74.27
14242;BME280;7205;50.864;12.766;2023-03-01T07:17:43;98683.28;;;-1.71;73.80
14242;BME280;7205;50.864;12.766;2023-03-01T07:20:14;98685.50;;;-1.63;74.05
14242;BME280;7205;50.864;12.766;2023-03-01T07:22:41;98687.78;;;-1.57;74.08
14242;BME280;7205;50.864;12.766;2023-03-01T07:25:08;98686.56;;;-1.50;74.36
14242;BME280;7205;50.864;12.766;2023-03-01T07:27:36;98686.22;;;-1.43;74.43
14242;BME280;7205;50.864;12.766;2023-03-01T07:30:04;98681.56;;;-1.36;74.35
14242;BME280;7205;50.864;12.766;2023-03-01T07:32:31;98682.09;;;-1.30;74.26
14242;BME280;7205;50.864;12.766;2023-03-01T07:34:58;98685.38;;;-1.26;74.24
14242;BME280;7205;50.864;12.766;2023-03-01T07:37:26;98686.78;;;-1.20;74.03
14242;BME280;7205;50.864;12.766;2023-03-01T07:39:53;98687.47;;;-1.17;74.19
14242;BME280;7205;50.864;12.766;2023-03-01T07:42:19;98684.06;;;-1.17;73.98
14242;BME280;7205;50.864;12.766;2023-03-01T07:44:46;98682.00;;;-1.11;73.79
14242;BME280;7205;50.864;12.766;2023-03-01T07:47:13;98686.19;;;-1.08;73.69
14242;BME280;7205;50.864;12.766;2023-03-01T07:49:40;98676.50;;;-1.05;73.87
14242;BME280;7205;50.864;12.766;2023-03-01T07:52:09;98677.88;;;-0.98;73.89
14242;BME280;7205;50.864;12.766;2023-03-01T07:54:37;98680.13;;;-0.92;73.92
14242;BME280;7205;50.864;12.766;2023-03-01T07:57:04;98676.47;;;-0.88;73.68
14242;BME280;7205;50.864;12.766;2023-03-01T07:59:31;98669.38;;;-0.84;73.80
14242;BME280;7205;50.864;12.766;2023-03-01T08:01:58;98673.44;;;-0.79;73.92
14242;BME280;7205;50.864;12.766;2023-03-01T08:04:25;98667.91;;;-0.73;73.94
14242;BME280;7205;50.864;12.766;2023-03-01T08:06:52;98659.06;;;-0.69;73.78
14242;BME280;7205;50.864;12.766;2023-03-01T08:09:19;98658.81;;;-0.64;73.56
14242;BME280;7205;50.864;12.766;2023-03-01T08:11:48;98661.06;;;-0.58;73.51
14242;BME280;7205;50.864;12.766;2023-03-01T08:14:14;98661.66;;;-0.53;73.76
14242;BME280;7205;50.864;12.766;2023-03-01T08:16:41;98655.31;;;-0.48;73.75
14242;BME280;7205;50.864;12.766;2023-03-01T08:19:10;98644.59;;;-0.42;73.50
14242;BME280;7205;50.864;12.766;2023-03-01T08:21:37;98641.69;;;-0.36;73.56
14242;BME280;7205;50.864;12.766;2023-03-01T08:24:06;98632.81;;;-0.32;73.88
14242;BME280;7205;50.864;12.766;2023-03-01T08:26:33;98643.63;;;-0.24;74.06
14242;BME280;7205;50.864;12.766;2023-03-01T08:29:04;98642.19;;;-0.14;74.06
14242;BME280;7205;50.864;12.766;2023-03-01T08:31:32;98640.25;;;-0.10;73.76
14242;BME280;7205;50.864;12.766;2023-03-01T08:34:02;98647.63;;;-0.03;73.92
14242;BME280;7205;50.864;12.766;2023-03-01T08:36:31;98646.38;;;0.05;73.93
14242;BME280;7205;50.864;12.766;2023-03-01T08:38:59;98649.63;;;0.08;73.36
14242;BME280;7205;50.864;12.766;2023-03-01T08:41:26;98637.47;;;0.09;73.20
14242;BME280;7205;50.864;12.766;2023-03-01T08:43:53;98639.16;;;0.10;73.05
14242;BME280;7205;50.864;12.766;2023-03-01T08:46:25;98634.63;;;0.13;72.98
14242;BME280;7205;50.864;12.766;2023-03-01T08:48:52;98631.00;;;0.16;72.89
14242;BME280;7205;50.864;12.766;2023-03-01T08:51:20;98632.44;;;0.21;72.91
14242;BME280;7205;50.864;12.766;2023-03-01T08:53:47;98633.94;;;0.25;72.92
14242;BME280;7205;50.864;12.766;2023-03-01T08:56:15;98622.53;;;0.28;72.38
14242;BME280;7205;50.864;12.766;2023-03-01T08:58:44;98628.31;;;0.33;72.20
14242;BME280;7205;50.864;12.766;2023-03-01T09:01:13;98615.13;;;0.36;72.21
14242;BME280;7205;50.864;12.766;2023-03-01T09:03:41;98619.16;;;0.41;72.45
14242;BME280;7205;50.864;12.766;2023-03-01T09:06:09;98609.59;;;0.42;71.93
14242;BME280;7205;50.864;12.766;2023-03-01T09:08:37;98608.25;;;0.50;72.06
14242;BME280;7205;50.864;12.766;2023-03-01T09:11:06;98610.56;;;0.55;72.20
14242;BME280;7205;50.864;12.766;2023-03-01T09:13:33;98612.03;;;0.59;71.95
14242;BME280;7205;50.864;12.766;2023-03-01T09:16:02;98607.50;;;0.62;72.25
14242;BME280;7205;50.864;12.766;2023-03-01T09:18:29;98607.06;;;0.70;71.97
14242;BME280;7205;50.864;12.766;2023-03-01T09:21:02;98601.59;;;0.74;72.03
14242;BME280;7205;50.864;12.766;2023-03-01T09:23:32;98597.88;;;0.78;71.52
14242;BME280;7205;50.864;12.766;2023-03-01T09:25:59;98590.66;;;0.83;71.90
14242;BME280;7205;50.864;12.766;2023-03-01T09:28:26;98593.06;;;0.86;71.25
14242;BME280;7205;50.864;12.766;2023-03-01T09:30:53;98584.97;;;0.91;71.42
14242;BME280;7205;50.864;12.766;2023-03-01T09:33:20;98583.97;;;0.93;71.37
14242;BME280;7205;50.864;12.766;2023-03-01T09:35:46;98587.22;;;0.97;70.79
14242;BME280;7205;50.864;12.766;2023-03-01T09:38:15;98590.38;;;1.02;71.31
14242;BME280;7205;50.864;12.766;2023-03-01T09:40:43;98597.91;;;1.06;71.06
14242;BME280;7205;50.864;12.766;2023-03-01T09:43:20;98594.25;;;1.09;70.58
14242;BME280;7205;50.864;12.766;2023-03-01T09:45:49;98597.59;;;1.11;70.75
14242;BME280;7205;50.864;12.766;2023-03-01T09:48:23;98592.31;;;1.12;70.53
14242;BME280;7205;50.864;12.766;2023-03-01T09:50:51;98594.75;;;1.15;70.04
14242;BME280;7205;50.864;12.766;2023-03-01T09:53:22;98596.22;;;1.19;69.96
14242;BME280;7205;50.864;12.766;2023-03-01T09:55:54;98595.22;;;1.22;70.18
14242;BME280;7205;50.864;12.766;2023-03-01T09:58:36;98587.13;;;1.26;69.34
14242;BME280;7205;50.864;12.766;2023-03-01T10:01:26;98591.28;;;1.29;69.56
14242;BME280;7205;50.864;12.766;2023-03-01T10:04:04;98594.44;;;1.34;69.33
14242;BME280;7205;50.864;12.766;2023-03-01T10:06:38;98601.88;;;1.40;69.35
14242;BME280;7205;50.864;12.766;2023-03-01T10:09:12;98598.88;;;1.46;69.65
14242;BME280;7205;50.864;12.766;2023-03-01T10:11:44;98599.72;;;1.47;69.57
14242;BME280;7205;50.864;12.766;2023-03-01T10:14:22;98603.72;;;1.52;68.81
14242;BME280;7205;50.864;12.766;2023-03-01T10:16:53;98606.31;;;1.52;68.71
14242;BME280;7205;50.864;12.766;2023-03-01T10:19:30;98600.16;;;1.53;68.72
14242;BME280;7205;50.864;12.766;2023-03-01T10:22:04;98599.16;;;1.56;68.86
14242;BME280;7205;50.864;12.766;2023-03-01T10:24:37;98590.22;;;1.60;68.53
14242;BME280;7205;50.864;12.766;2023-03-01T10:27:07;98585.75;;;1.62;68.17
14242;BME280;7205;50.864;12.766;2023-03-01T10:29:41;98582.94;;;1.65;67.84
14242;BME280;7205;50.864;12.766;2023-03-01T10:32:09;98579.22;;;1.69;67.93
14242;BME280;7205;50.864;12.766;2023-03-01T10:34:37;98574.78;;;1.71;68.01
14242;BME280;7205;50.864;12.766;2023-03-01T10:37:10;98582.06;;;1.78;68.22
14242;BME280;7205;50.864;12.766;2023-03-01T10:39:54;98586.06;;;1.84;67.99
14242;BME280;7205;50.864;12.766;2023-03-01T10:42:26;98569.50;;;1.85;67.86
14242;BME280;7205;50.864;12.766;2023-03-01T10:44:54;98572.75;;;1.88;67.51
14242;BME280;7205;50.864;12.766;2023-03-01T10:47:22;98568.91;;;1.94;67.38
14242;BME280;7205;50.864;12.766;2023-03-01T10:49:58;98562.47;;;1.99;67.50
14242;BME280;7205;50.864;12.766;2023-03-01T10:52:29;98552.78;;;2.01;66.90
14242;BME280;7205;50.864;12.766;2023-03-01T10:54:59;98553.22;;;2.08;66.83
14242;BME280;7205;50.864;12.766;2023-03-01T10:57:36;98554.69;;;2.12;67.34
14242;BME280;7205;50.864;12.766;2023-03-01T11:00:25;98555.97;;;2.19;67.41
14242;BME280;7205;50.864;12.766;2023-03-01T11:03:11;98560.66;;;2.26;67.61
14242;BME280;7205;50.864;12.766;2023-03-01T11:05:57;98550.97;;;2.28;66.89
14242;BME280;7205;50.864;12.766;2023-03-01T11:08:39;98558.31;;;2.36;66.50
14242;BME280;7205;50.864;12.766;2023-03-01T11:11:32;98553.81;;;2.38;66.71
14242;BME280;7205;50.864;12.766;2023-03-01T11:14:03;98560.59;;;2.40;66.20
14242;BME280;7205;50.864;12.766;2023-03-01T11:16:34;98554.53;;;2.40;66.27
14242;BME280;7205;50.864;12.766;2023-03-01T11:19:19;98555.19;;;2.43;65.43
14242;BME280;7205;50.864;12.766;2023-03-01T11:21:58;98559.66;;;2.41;65.19
14242;BME280;7205;50.864;12.766;2023-03-01T11:25:10;98547.03;;;2.35;65.09
14242;BME280;7205;50.864;12.766;2023-03-01T11:27:44;98545.47;;;2.33;64.23
14242;BME280;7205;50.864;12.766;2023-03-01T11:30:17;98544.22;;;2.38;64.78
14242;BME280;7205;50.864;12.766;2023-03-01T11:32:50;98542.47;;;2.39;64.19
14242;BME280;7205;50.864;12.766;2023-03-01T11:35:22;98543.38;;;2.38;64.33
14242;BME280;7205;50.864;12.766;2023-03-01T11:38:02;98542.25;;;2.42;64.76
14242;BME280;7205;50.864;12.766;2023-03-01T11:40:33;98545.59;;;2.44;64.35
14242;BME280;7205;50.864;12.766;2023-03-01T11:43:17;98546.41;;;2.44;63.89
14242;BME280;7205;50.864;12.766;2023-03-01T11:45:56;98554.84;;;2.48;63.96
14242;BME280;7205;50.864;12.766;2023-03-01T11:48:44;98555.69;;;2.48;63.63
14242;BME280;7205;50.864;12.766;2023-03-01T11:51:20;98554.56;;;2.52;63.73
14242;BME280;7205;50.864;12.766;2023-03-01T11:53:59;98545.59;;;2.56;64.17
14242;BME280;7205;50.864;12.766;2023-03-01T11:56:31;98545.41;;;2.60;64.12
14242;BME280;7205;50.864;12.766;2023-03-01T11:59:15;98526.09;;;2.62;64.12
14242;BME280;7205;50.864;12.766;2023-03-01T12:01:55;98524.97;;;2.66;63.31
14242;BME280;7205;50.864;12.766;2023-03-01T12:04:51;98527.16;;;2.72;63.38
14242;BME280;7205;50.864;12.766;2023-03-01T12:07:26;98521.72;;;2.75;63.63
14242;BME280;7205;50.864;12.766;2023-03-01T12:10:15;98523.09;;;2.81;63.80
14242;BME280;7205;50.864;12.766;2023-03-01T12:13:08;98519.53;;;2.82;63.64
14242;BME280;7205;50.864;12.766;2023-03-01T12:15:46;98518.59;;;2.83;62.76
14242;BME280;7205;50.864;12.766;2023-03-01T12:18:36;98505.56;;;2.83;62.87
14242;BME280;7205;50.864;12.766;2023-03-01T12:21:16;98514.13;;;2.85;63.29
14242;BME280;7205;50.864;12.766;2023-03-01T12:24:06;98506.09;;;2.88;62.89
14242;BME280;7205;50.864;12.766;2023-03-01T12:26:45;98498.16;;;2.89;63.17
14242;BME280;7205;50.864;12.766;2023-03-01T12:29:24;98496.97;;;2.93;63.35
14242;BME280;7205;50.864;12.766;2023-03-01T12:32:10;98501.78;;;2.99;64.04
14242;BME280;7205;50.864;12.766;2023-03-01T12:37:50;98493.97;;;2.99;63.85
14242;BME280;7205;50.864;12.766;2023-03-01T12:40:33;98486.03;;;3.01;64.46
14242;BME280;7205;50.864;12.766;2023-03-01T12:43:20;98486.88;;;3.01;64.31
14242;BME280;7205;50.864;12.766;2023-03-01T12:45:57;98489.47;;;3.01;64.46
14242;BME280;7205;50.864;12.766;2023-03-01T12:48:47;98485.28;;;2.99;64.51
14242;BME280;7205;50.864;12.766;2023-03-01T12:51:20;98488.53;;;3.02;64.99
14242;BME280;7205;50.864;12.766;2023-03-01T12:53:50;98484.97;;;3.03;64.58
14242;BME280;7205;50.864;12.766;2023-03-01T12:56:20;98483.81;;;3.07;64.92
14242;BME280;7205;50.864;12.766;2023-03-01T12:58:57;98476.81;;;3.08;64.72
14242;BME280;7205;50.864;12.766;2023-03-01T13:01:35;98479.84;;;3.14;64.94
14242;BME280;7205;50.864;12.766;2023-03-01T13:04:31;98480.47;;;3.18;64.40
14242;BME280;7205;50.864;12.766;2023-03-01T13:07:14;98474.06;;;3.22;64.47
14242;BME280;7205;50.864;12.766;2023-03-01T13:09:49;98473.94;;;3.23;64.24
14242;BME280;7205;50.864;12.766;2023-03-01T13:12:46;98469.56;;;3.24;63.83
14242;BME280;7205;50.864;12.766;2023-03-01T13:15:28;98472.91;;;3.26;64.12
14242;BME280;7205;50.864;12.766;2023-03-01T13:17:58;98469.22;;;3.28;64.79
14242;BME280;7205;50.864;12.766;2023-03-01T13:20:30;98464.50;;;3.33;64.57
14242;BME280;7205;50.864;12.766;2023-03-01T13:23:07;98458.38;;;3.34;64.48
14242;BME280;7205;50.864;12.766;2023-03-01T13:25:59;98460.88;;;3.36;64.60
14242;BME280;7205;50.864;12.766;2023-03-01T13:28:51;98461.47;;;3.39;64.36